createdAt,value
2017-09-17T00:00:21.201Z,0
2017-09-17T00:01:31.661Z,0
2017-09-17T00:02:41.867Z,0
2017-09-17T00:03:52.562Z,0
2017-09-17T00:05:02.986Z,0
2017-09-17T00:06:13.296Z,0
2017-09-17T00:07:23.962Z,0
2017-09-17T00:08:34.427Z,0
2017-09-17T00:09:45.155Z,0
2017-09-17T00:10:55.585Z,0
2017-09-17T00:12:05.759Z,0
2017-09-17T00:13:16.423Z,0
2017-09-17T00:14:27.035Z,0
2017-09-17T00:15:37.723Z,0
2017-09-17T00:16:48.153Z,0
2017-09-17T00:17:57.832Z,0
2017-09-17T00:19:08.004Z,0
2017-09-17T00:20:18.121Z,0
2017-09-17T00:21:28.957Z,0
2017-09-17T00:22:39.401Z,0
2017-09-17T00:23:49.991Z,0
2017-09-17T00:25:00.472Z,0
2017-09-17T00:26:10.920Z,0
2017-09-17T00:27:21.645Z,0
2017-09-17T00:28:32.151Z,0
2017-09-17T00:29:42.593Z,0
2017-09-17T00:30:53.019Z,0
2017-09-17T00:32:03.159Z,0
2017-09-17T00:33:13.551Z,0
2017-09-17T00:34:24.004Z,0
2017-09-17T00:35:34.446Z,0
2017-09-17T00:36:44.882Z,0
2017-09-17T00:37:55.309Z,0
2017-09-17T00:39:05.699Z,0
2017-09-17T00:40:16.150Z,0
2017-09-17T00:41:26.134Z,0
2017-09-17T00:42:36.250Z,0
2017-09-17T00:43:46.697Z,0
2017-09-17T00:44:57.422Z,0
2017-09-17T00:46:08.068Z,0
2017-09-17T00:47:18.566Z,0
2017-09-17T00:48:28.783Z,0
2017-09-17T00:49:39.214Z,0
2017-09-17T00:50:49.745Z,0
2017-09-17T00:52:01.154Z,0
2017-09-17T00:53:11.044Z,0
2017-09-17T00:54:21.473Z,0
2017-09-17T00:55:31.918Z,0
2017-09-17T00:56:42.031Z,0
2017-09-17T00:57:52.492Z,0
2017-09-17T00:59:02.622Z,0
2017-09-17T01:00:13.318Z,0
2017-09-17T01:01:23.813Z,0
2017-09-17T01:02:34.484Z,0
2017-09-17T01:03:44.924Z,0
2017-09-17T01:04:55.402Z,0
2017-09-17T01:06:05.820Z,0
2017-09-17T01:07:15.809Z,0
2017-09-17T01:08:26.549Z,0
2017-09-17T01:09:36.974Z,0
2017-09-17T01:10:47.414Z,0
2017-09-17T01:11:57.554Z,0
2017-09-17T01:13:08.014Z,0
2017-09-17T01:14:18.694Z,0
2017-09-17T01:15:29.173Z,0
2017-09-17T01:16:39.757Z,0
2017-09-17T01:17:49.908Z,0
2017-09-17T01:19:00.351Z,0
2017-09-17T01:20:11.166Z,0
2017-09-17T01:21:21.585Z,0
2017-09-17T01:22:32.701Z,0
2017-09-17T01:23:43.454Z,0
2017-09-17T01:24:53.949Z,0
2017-09-17T01:26:04.351Z,0
2017-09-17T01:27:14.936Z,0
2017-09-17T01:28:25.389Z,0
2017-09-17T01:29:35.868Z,0
2017-09-17T01:30:46.297Z,0
2017-09-17T01:31:56.975Z,0
2017-09-17T01:33:07.403Z,0
2017-09-17T01:34:17.902Z,0
2017-09-17T01:35:28.417Z,0
2017-09-17T01:36:38.841Z,0
2017-09-17T01:37:49.239Z,0
2017-09-17T01:38:59.695Z,0
2017-09-17T01:40:10.141Z,0
2017-09-17T01:41:20.621Z,0
2017-09-17T01:42:31.259Z,0
2017-09-17T01:43:41.937Z,0
2017-09-17T01:44:52.565Z,0
2017-09-17T01:46:03.040Z,0
2017-09-17T01:47:13.154Z,0
2017-09-17T01:48:23.672Z,0
2017-09-17T01:49:34.528Z,0
2017-09-17T01:50:45.190Z,0
2017-09-17T01:51:55.621Z,0
2017-09-17T01:53:06.153Z,0
2017-09-17T01:54:16.585Z,0
2017-09-17T01:55:26.957Z,0
2017-09-17T01:56:37.077Z,0
2017-09-17T01:57:47.587Z,0
2017-09-17T01:58:58.019Z,0
2017-09-17T02:00:08.508Z,0
2017-09-17T02:01:19.221Z,0
2017-09-17T02:02:29.666Z,0
2017-09-17T02:03:40.032Z,0
2017-09-17T02:04:50.249Z,0
2017-09-17T02:06:00.680Z,0
2017-09-17T02:07:11.435Z,0
2017-09-17T02:08:21.978Z,0
2017-09-17T02:09:32.130Z,0
2017-09-17T02:10:42.576Z,0
2017-09-17T02:11:53.171Z,0
2017-09-17T02:13:03.899Z,0
2017-09-17T02:14:14.354Z,0
2017-09-17T02:15:24.833Z,0
2017-09-17T02:16:35.252Z,0
2017-09-17T02:17:45.822Z,0
2017-09-17T02:18:56.526Z,0
2017-09-17T02:20:07.061Z,0
2017-09-17T02:21:17.503Z,0
2017-09-17T02:22:27.954Z,0
2017-09-17T02:23:38.607Z,0
2017-09-17T02:24:49.286Z,0
2017-09-17T02:25:59.713Z,0
2017-09-17T02:27:10.126Z,0
2017-09-17T02:28:20.276Z,0
2017-09-17T02:29:30.850Z,0
2017-09-17T02:30:41.546Z,0
2017-09-17T02:31:51.965Z,0
2017-09-17T02:33:02.409Z,0
2017-09-17T02:34:12.879Z,0
2017-09-17T02:35:23.595Z,0
2017-09-17T02:36:34.302Z,0
2017-09-17T02:37:44.826Z,0
2017-09-17T02:38:55.251Z,0
2017-09-17T02:40:05.685Z,0
2017-09-17T02:41:15.700Z,0
2017-09-17T02:42:26.447Z,0
2017-09-17T02:43:36.880Z,0
2017-09-17T02:44:47.313Z,0
2017-09-17T02:45:58.036Z,0
2017-09-17T02:47:08.671Z,0
2017-09-17T02:48:19.395Z,0
2017-09-17T02:49:29.829Z,0
2017-09-17T02:50:40.279Z,0
2017-09-17T02:51:50.408Z,0
2017-09-17T02:53:00.835Z,0
2017-09-17T02:54:11.520Z,0
2017-09-17T02:55:21.995Z,0
2017-09-17T02:56:32.468Z,0
2017-09-17T02:57:42.954Z,0
2017-09-17T02:58:53.367Z,0
2017-09-17T03:00:04.036Z,0
2017-09-17T03:01:14.627Z,0
2017-09-17T03:02:24.779Z,0
2017-09-17T03:03:35.234Z,0
2017-09-17T03:04:45.672Z,0
2017-09-17T03:05:55.981Z,0
2017-09-17T03:07:06.427Z,0
2017-09-17T03:08:16.876Z,0
2017-09-17T03:09:27.301Z,0
2017-09-17T03:10:37.964Z,0
2017-09-17T03:11:48.691Z,0
2017-09-17T03:12:59.120Z,0
2017-09-17T03:14:09.592Z,0
2017-09-17T03:15:20.432Z,0
2017-09-17T03:16:30.959Z,0
2017-09-17T03:17:41.676Z,0
2017-09-17T03:18:52.094Z,0
2017-09-17T03:20:02.600Z,0
2017-09-17T03:21:13.019Z,0
2017-09-17T03:22:23.540Z,0
2017-09-17T03:23:34.237Z,0
2017-09-17T03:24:44.350Z,0
2017-09-17T03:25:54.777Z,0
2017-09-17T03:27:05.237Z,0
2017-09-17T03:28:15.651Z,0
2017-09-17T03:29:26.362Z,0
2017-09-17T03:30:36.550Z,0
2017-09-17T03:31:47.000Z,0
2017-09-17T03:32:57.506Z,0
2017-09-17T03:34:07.645Z,0
2017-09-17T03:35:18.350Z,0
2017-09-17T03:36:28.760Z,0
2017-09-17T03:37:38.845Z,0
2017-09-17T03:38:48.666Z,0
2017-09-17T03:39:59.131Z,0
2017-09-17T03:41:09.845Z,0
2017-09-17T03:42:20.388Z,0
2017-09-17T03:43:30.899Z,0
2017-09-17T03:44:41.318Z,0
2017-09-17T03:45:51.743Z,0
2017-09-17T03:47:01.858Z,0
2017-09-17T03:48:12.364Z,0
2017-09-17T03:49:22.794Z,0
2017-09-17T03:50:33.258Z,0
2017-09-17T03:51:43.892Z,0
2017-09-17T03:52:54.661Z,0
2017-09-17T03:54:05.106Z,0
2017-09-17T03:55:15.646Z,0
2017-09-17T03:56:26.080Z,0
2017-09-17T03:57:36.554Z,0
2017-09-17T03:58:47.223Z,0
2017-09-17T03:59:57.882Z,0
2017-09-17T04:01:08.312Z,0
2017-09-17T04:02:18.763Z,0
2017-09-17T04:03:29.291Z,0
2017-09-17T04:04:40.938Z,0
2017-09-17T04:05:51.483Z,0
2017-09-17T04:07:01.901Z,0
2017-09-17T04:08:12.359Z,0
2017-09-17T04:09:22.324Z,0
2017-09-17T04:10:32.993Z,0
2017-09-17T04:11:43.672Z,0
2017-09-17T04:12:54.079Z,0
2017-09-17T04:14:04.566Z,0
2017-09-17T04:15:15.032Z,0
2017-09-17T04:16:25.706Z,0
2017-09-17T04:17:36.231Z,0
2017-09-17T04:18:46.349Z,0
2017-09-17T04:19:56.788Z,0
2017-09-17T04:21:07.325Z,0
2017-09-17T04:22:18.020Z,0
2017-09-17T04:23:27.999Z,0
2017-09-17T04:24:37.989Z,0
2017-09-17T04:25:48.416Z,0
2017-09-17T04:26:58.898Z,0
2017-09-17T04:28:09.609Z,0
2017-09-17T04:29:20.029Z,0
2017-09-17T04:30:30.508Z,0
2017-09-17T04:31:40.500Z,0
2017-09-17T04:32:50.922Z,0
2017-09-17T04:34:02.708Z,0
2017-09-17T04:35:13.073Z,0
2017-09-17T04:36:23.601Z,0
2017-09-17T04:37:34.016Z,0
2017-09-17T04:38:44.489Z,0
2017-09-17T04:39:55.233Z,0
2017-09-17T04:41:05.653Z,0
2017-09-17T04:42:16.094Z,0
2017-09-17T04:43:26.593Z,0
2017-09-17T04:44:37.127Z,0
2017-09-17T04:45:47.840Z,0
2017-09-17T04:46:58.269Z,5
2017-09-17T04:48:08.792Z,5
2017-09-17T04:49:19.218Z,5
2017-09-17T04:50:29.658Z,5
2017-09-17T04:51:40.096Z,5
2017-09-17T04:52:50.524Z,5
2017-09-17T04:54:00.492Z,10
2017-09-17T04:55:10.959Z,10
2017-09-17T04:56:21.389Z,10
2017-09-17T04:57:32.207Z,10
2017-09-17T04:58:42.657Z,15
2017-09-17T04:59:53.078Z,15
2017-09-17T05:01:03.521Z,15
2017-09-17T05:02:13.981Z,15
2017-09-17T05:03:24.670Z,20
2017-09-17T05:04:35.127Z,20
2017-09-17T05:05:45.237Z,20
2017-09-17T05:06:55.694Z,25
2017-09-17T05:08:06.117Z,25
2017-09-17T05:09:16.800Z,25
2017-09-17T05:10:27.374Z,30
2017-09-17T05:11:37.797Z,30
2017-09-17T05:12:47.936Z,30
2017-09-17T05:13:58.375Z,35
2017-09-17T05:15:08.750Z,35
2017-09-17T05:16:18.968Z,40
2017-09-17T05:17:29.403Z,40
2017-09-17T05:18:39.877Z,45
2017-09-17T05:19:50.327Z,50
2017-09-17T05:21:00.261Z,50
2017-09-17T05:22:11.046Z,50
2017-09-17T05:23:21.203Z,55
2017-09-17T05:24:31.622Z,60
2017-09-17T05:25:42.080Z,65
2017-09-17T05:26:52.980Z,65
2017-09-17T05:28:03.401Z,70
2017-09-17T05:29:13.832Z,70
2017-09-17T05:30:24.268Z,70
2017-09-17T05:31:34.376Z,75
2017-09-17T05:32:45.068Z,75
2017-09-17T05:33:55.511Z,80
2017-09-17T05:35:06.001Z,85
2017-09-17T05:36:16.435Z,85
2017-09-17T05:37:27.120Z,85
2017-09-17T05:38:37.810Z,90
2017-09-17T05:39:47.812Z,95
2017-09-17T05:40:57.940Z,100
2017-09-17T05:42:08.414Z,105
2017-09-17T05:43:18.889Z,100
2017-09-17T05:44:29.657Z,100
2017-09-17T05:45:40.108Z,95
2017-09-17T05:46:50.558Z,100
2017-09-17T05:48:00.538Z,105
2017-09-17T05:49:10.685Z,100
2017-09-17T05:50:21.092Z,100
2017-09-17T05:51:31.546Z,105
2017-09-17T05:52:42.082Z,105
2017-09-17T05:53:52.509Z,105
2017-09-17T05:55:02.666Z,110
2017-09-17T05:56:13.346Z,115
2017-09-17T05:57:23.777Z,120
2017-09-17T05:58:34.256Z,120
2017-09-17T05:59:44.726Z,125
2017-09-17T06:00:55.204Z,125
2017-09-17T06:02:05.988Z,130
2017-09-17T06:03:16.413Z,130
2017-09-17T06:04:26.857Z,135
2017-09-17T06:05:37.266Z,135
2017-09-17T06:06:47.536Z,135
2017-09-17T06:07:58.210Z,135
2017-09-17T06:09:08.666Z,135
2017-09-17T06:10:19.112Z,125
2017-09-17T06:11:29.557Z,120
2017-09-17T06:12:39.992Z,120
2017-09-17T06:13:50.673Z,120
2017-09-17T06:15:01.112Z,125
2017-09-17T06:16:11.248Z,125
2017-09-17T06:17:21.690Z,130
2017-09-17T06:18:32.139Z,130
2017-09-17T06:19:42.804Z,135
2017-09-17T06:20:53.332Z,140
2017-09-17T06:22:03.754Z,140
2017-09-17T06:23:14.278Z,135
2017-09-17T06:24:24.614Z,135
2017-09-17T06:25:35.323Z,135
2017-09-17T06:26:45.433Z,135
2017-09-17T06:27:55.871Z,135
2017-09-17T06:29:06.389Z,140
2017-09-17T06:30:16.824Z,140
2017-09-17T06:31:27.498Z,150
2017-09-17T06:32:38.021Z,160
2017-09-17T06:33:48.458Z,165
2017-09-17T06:34:59.089Z,170
2017-09-17T06:36:09.566Z,170
2017-09-17T06:37:20.396Z,170
2017-09-17T06:38:30.395Z,175
2017-09-17T06:39:40.930Z,170
2017-09-17T06:40:51.389Z,175
2017-09-17T06:42:01.809Z,185
2017-09-17T06:43:12.659Z,195
2017-09-17T06:44:23.096Z,205
2017-09-17T06:45:33.546Z,205
2017-09-17T06:46:44.016Z,205
2017-09-17T06:47:54.477Z,205
2017-09-17T06:49:05.209Z,200
2017-09-17T06:50:15.807Z,200
2017-09-17T06:51:26.270Z,200
2017-09-17T06:52:36.739Z,200
2017-09-17T06:53:47.424Z,205
2017-09-17T06:54:58.190Z,220
2017-09-17T06:56:08.615Z,220
2017-09-17T06:57:19.095Z,225
2017-09-17T06:58:29.558Z,230
2017-09-17T06:59:40.050Z,230
2017-09-17T07:00:50.863Z,230
2017-09-17T07:02:01.470Z,225
2017-09-17T07:03:11.954Z,210
2017-09-17T07:04:22.465Z,220
2017-09-17T07:05:32.905Z,215
2017-09-17T07:06:43.619Z,220
2017-09-17T07:07:53.746Z,225
2017-09-17T07:09:04.311Z,230
2017-09-17T07:10:14.528Z,240
2017-09-17T07:11:24.717Z,250
2017-09-17T07:12:35.402Z,270
2017-09-17T07:13:45.529Z,295
2017-09-17T07:14:55.974Z,325
2017-09-17T07:16:06.036Z,345
2017-09-17T07:17:16.465Z,365
2017-09-17T07:18:27.197Z,380
2017-09-17T07:19:37.645Z,385
2017-09-17T07:20:48.093Z,415
2017-09-17T07:21:58.540Z,420
2017-09-17T07:23:09.053Z,435
2017-09-17T07:24:19.524Z,450
2017-09-17T07:25:29.974Z,465
2017-09-17T07:26:40.608Z,475
2017-09-17T07:27:51.059Z,490
2017-09-17T07:29:01.521Z,500
2017-09-17T07:30:12.047Z,515
2017-09-17T07:31:22.489Z,525
2017-09-17T07:32:32.928Z,540
2017-09-17T07:33:43.369Z,540
2017-09-17T07:34:53.953Z,530
2017-09-17T07:36:04.410Z,485
2017-09-17T07:37:14.853Z,500
2017-09-17T07:38:25.284Z,570
2017-09-17T07:39:35.812Z,585
2017-09-17T07:40:45.932Z,600
2017-09-17T07:41:56.431Z,595
2017-09-17T07:43:06.904Z,615
2017-09-17T07:44:17.342Z,615
2017-09-17T07:45:27.816Z,625
2017-09-17T07:46:38.271Z,620
2017-09-17T07:47:48.711Z,580
2017-09-17T07:48:58.823Z,580
2017-09-17T07:50:09.450Z,575
2017-09-17T07:51:19.593Z,530
2017-09-17T07:52:30.099Z,495
2017-09-17T07:53:40.822Z,475
2017-09-17T07:54:51.319Z,470
2017-09-17T07:56:01.813Z,460
2017-09-17T07:57:12.242Z,460
2017-09-17T07:58:22.693Z,455
2017-09-17T07:59:33.361Z,450
2017-09-17T08:00:43.805Z,430
2017-09-17T08:01:54.343Z,425
2017-09-17T08:03:04.768Z,410
2017-09-17T08:04:14.805Z,410
2017-09-17T08:05:25.034Z,415
2017-09-17T08:06:35.460Z,420
2017-09-17T08:07:46.002Z,425
2017-09-17T08:08:56.473Z,430
2017-09-17T08:10:06.948Z,445
2017-09-17T08:11:17.395Z,465
2017-09-17T08:12:27.551Z,480
2017-09-17T08:13:38.117Z,490
2017-09-17T08:14:48.560Z,505
2017-09-17T08:15:58.986Z,530
2017-09-17T08:17:09.419Z,525
2017-09-17T08:18:19.871Z,530
2017-09-17T08:19:30.299Z,595
2017-09-17T08:20:40.434Z,520
2017-09-17T08:21:50.905Z,535
2017-09-17T08:23:01.394Z,540
2017-09-17T08:24:11.560Z,535
2017-09-17T08:25:22.296Z,540
2017-09-17T08:26:32.972Z,555
2017-09-17T08:27:43.403Z,575
2017-09-17T08:28:53.470Z,590
2017-09-17T08:30:03.913Z,595
2017-09-17T08:31:14.419Z,585
2017-09-17T08:32:24.910Z,600
2017-09-17T08:33:35.375Z,630
2017-09-17T08:34:46.344Z,725
2017-09-17T08:35:56.801Z,1000
2017-09-17T08:37:07.720Z,1120
2017-09-17T08:38:18.221Z,750
2017-09-17T08:39:28.645Z,805
2017-09-17T08:40:39.215Z,895
2017-09-17T08:41:49.794Z,900
2017-09-17T08:43:00.232Z,1000
2017-09-17T08:44:10.718Z,1120
2017-09-17T08:45:21.409Z,1940
2017-09-17T08:46:31.883Z,1060
2017-09-17T08:47:42.392Z,1125
2017-09-17T08:48:52.553Z,1125
2017-09-17T08:50:03.035Z,835
2017-09-17T08:51:13.489Z,830
2017-09-17T08:52:23.487Z,1330
2017-09-17T08:53:33.934Z,1380
2017-09-17T08:54:44.397Z,2330
2017-09-17T08:55:54.550Z,2295
2017-09-17T08:57:04.743Z,2280
2017-09-17T08:58:15.333Z,2210
2017-09-17T08:59:26.790Z,2080
2017-09-17T09:00:38.217Z,2165
2017-09-17T09:01:48.314Z,2400
2017-09-17T09:02:58.791Z,2570
2017-09-17T09:04:09.357Z,2430
2017-09-17T09:05:19.835Z,2200
2017-09-17T09:06:30.294Z,2015
2017-09-17T09:07:40.815Z,1910
2017-09-17T09:08:51.353Z,1975
2017-09-17T09:10:01.908Z,2170
2017-09-17T09:11:12.364Z,2310
2017-09-17T09:12:22.831Z,2430
2017-09-17T09:13:33.091Z,2540
2017-09-17T09:14:43.566Z,2620
2017-09-17T09:15:54.208Z,2625
2017-09-17T09:17:04.711Z,2605
2017-09-17T09:18:15.202Z,2585
2017-09-17T09:19:25.771Z,2555
2017-09-17T09:20:36.267Z,2445
2017-09-17T09:21:46.824Z,2405
2017-09-17T09:22:56.874Z,2490
2017-09-17T09:24:08.543Z,2625
2017-09-17T09:25:19.020Z,2655
2017-09-17T09:26:29.553Z,2560
2017-09-17T09:27:39.711Z,2480
2017-09-17T09:28:50.191Z,2555
2017-09-17T09:30:00.654Z,2635
2017-09-17T09:31:10.814Z,2725
2017-09-17T09:32:21.040Z,2745
2017-09-17T09:33:31.517Z,2790
2017-09-17T09:34:41.933Z,2800
2017-09-17T09:35:52.428Z,2825
2017-09-17T09:37:02.955Z,2845
2017-09-17T09:38:13.528Z,2890
2017-09-17T09:39:24.253Z,2185
2017-09-17T09:40:34.719Z,2825
2017-09-17T09:41:45.201Z,2000
2017-09-17T09:42:55.935Z,2715
2017-09-17T09:44:06.680Z,1595
2017-09-17T09:45:17.378Z,1325
2017-09-17T09:46:27.859Z,2625
2017-09-17T09:47:38.326Z,1180
2017-09-17T09:48:48.789Z,2265
2017-09-17T09:49:58.799Z,1315
2017-09-17T09:51:09.275Z,2040
2017-09-17T09:52:19.786Z,1500
2017-09-17T09:53:30.324Z,1775
2017-09-17T09:54:40.194Z,1790
2017-09-17T09:55:50.605Z,1730
2017-09-17T09:57:01.201Z,1580
2017-09-17T09:58:11.248Z,1605
2017-09-17T09:59:21.507Z,2065
2017-09-17T10:00:31.505Z,1680
2017-09-17T10:01:42.346Z,1705
2017-09-17T10:02:52.367Z,1700
2017-09-17T10:04:02.938Z,1380
2017-09-17T10:05:13.430Z,1510
2017-09-17T10:06:23.883Z,1260
2017-09-17T10:07:34.642Z,1525
2017-09-17T10:08:44.802Z,1675
2017-09-17T10:09:55.267Z,2175
2017-09-17T10:11:05.737Z,2555
2017-09-17T10:12:16.182Z,2665
2017-09-17T10:13:26.944Z,2215
2017-09-17T10:14:36.793Z,2020
2017-09-17T10:15:47.274Z,2045
2017-09-17T10:16:57.762Z,2905
2017-09-17T10:18:08.224Z,2225
2017-09-17T10:19:18.953Z,2240
2017-09-17T10:20:29.493Z,2325
2017-09-17T10:21:40.162Z,3120
2017-09-17T10:22:50.623Z,2800
2017-09-17T10:24:01.111Z,2950
2017-09-17T10:25:12.790Z,2775
2017-09-17T10:26:23.250Z,2085
2017-09-17T10:27:33.730Z,1195
2017-09-17T10:28:44.212Z,965
2017-09-17T10:29:54.731Z,910
2017-09-17T10:31:05.532Z,900
2017-09-17T10:32:15.994Z,1015
2017-09-17T10:33:26.467Z,2270
2017-09-17T10:34:36.985Z,3255
2017-09-17T10:35:47.486Z,1335
2017-09-17T10:36:58.221Z,1120
2017-09-17T10:38:08.243Z,3220
2017-09-17T10:39:18.439Z,3290
2017-09-17T10:40:28.968Z,1195
2017-09-17T10:41:39.453Z,685
2017-09-17T10:42:49.927Z,590
2017-09-17T10:44:00.382Z,555
2017-09-17T10:45:10.899Z,550
2017-09-17T10:46:21.071Z,560
2017-09-17T10:47:31.520Z,575
2017-09-17T10:48:42.224Z,580
2017-09-17T10:49:52.707Z,575
2017-09-17T10:51:03.165Z,590
2017-09-17T10:52:13.681Z,605
2017-09-17T10:53:24.160Z,630
2017-09-17T10:54:34.856Z,675
2017-09-17T10:55:45.320Z,685
2017-09-17T10:56:55.937Z,715
2017-09-17T10:58:06.416Z,740
2017-09-17T10:59:16.625Z,760
2017-09-17T11:00:27.378Z,800
2017-09-17T11:01:37.874Z,935
2017-09-17T11:02:48.339Z,1115
2017-09-17T11:03:58.868Z,970
2017-09-17T11:05:09.329Z,1095
2017-09-17T11:06:20.250Z,1040
2017-09-17T11:07:30.719Z,1885
2017-09-17T11:08:41.210Z,2245
2017-09-17T11:09:51.698Z,2570
2017-09-17T11:11:02.244Z,3460
2017-09-17T11:12:13.085Z,2690
2017-09-17T11:13:23.540Z,3600
2017-09-17T11:14:33.999Z,3260
2017-09-17T11:15:44.154Z,950
2017-09-17T11:16:54.659Z,1085
2017-09-17T11:18:05.374Z,845
2017-09-17T11:19:16.075Z,715
2017-09-17T11:20:26.531Z,715
2017-09-17T11:21:37.726Z,680
2017-09-17T11:22:48.250Z,700
2017-09-17T11:23:59.027Z,720
2017-09-17T11:25:09.526Z,725
2017-09-17T11:26:20.031Z,725
2017-09-17T11:27:30.231Z,735
2017-09-17T11:28:40.286Z,735
2017-09-17T11:29:51.030Z,855
2017-09-17T11:31:01.484Z,685
2017-09-17T11:32:11.983Z,645
2017-09-17T11:33:22.520Z,905
2017-09-17T11:34:33.124Z,2925
2017-09-17T11:35:43.834Z,3075
2017-09-17T11:36:54.306Z,3080
2017-09-17T11:38:04.782Z,3130
2017-09-17T11:39:15.304Z,3170
2017-09-17T11:40:25.981Z,3135
2017-09-17T11:41:36.711Z,3010
2017-09-17T11:42:47.451Z,2980
2017-09-17T11:43:58.007Z,3000
2017-09-17T11:45:08.499Z,3025
2017-09-17T11:46:18.980Z,3040
2017-09-17T11:47:29.709Z,3040
2017-09-17T11:48:40.426Z,3025
2017-09-17T11:49:50.912Z,2930
2017-09-17T11:51:01.406Z,2885
2017-09-17T11:52:12.104Z,2820
2017-09-17T11:53:22.381Z,2510
2017-09-17T11:54:32.847Z,3220
2017-09-17T11:55:43.328Z,3455
2017-09-17T11:56:53.869Z,3065
2017-09-17T11:58:04.358Z,3220
2017-09-17T11:59:15.103Z,2730
2017-09-17T12:00:25.192Z,2030
2017-09-17T12:01:35.348Z,3130
2017-09-17T12:02:45.534Z,2635
2017-09-17T12:03:56.034Z,2135
2017-09-17T12:05:06.442Z,2175
2017-09-17T12:06:16.928Z,1475
2017-09-17T12:07:27.408Z,1200
2017-09-17T12:08:37.906Z,1805
2017-09-17T12:09:48.399Z,1635
2017-09-17T12:10:59.185Z,1370
2017-09-17T12:12:09.730Z,1170
2017-09-17T12:13:20.213Z,1170
2017-09-17T12:14:30.798Z,1135
2017-09-17T12:15:41.422Z,1090
2017-09-17T12:16:52.220Z,1295
2017-09-17T12:18:02.337Z,925
2017-09-17T12:19:12.801Z,715
2017-09-17T12:20:22.986Z,650
2017-09-17T12:21:33.745Z,615
2017-09-17T12:22:44.545Z,600
2017-09-17T12:23:55.129Z,590
2017-09-17T12:25:05.601Z,600
2017-09-17T12:26:16.095Z,625
2017-09-17T12:27:26.594Z,695
2017-09-17T12:28:37.342Z,875
2017-09-17T12:29:47.886Z,1505
2017-09-17T12:30:58.363Z,1345
2017-09-17T12:32:08.848Z,1540
2017-09-17T12:33:19.340Z,1260
2017-09-17T12:34:30.042Z,1880
2017-09-17T12:35:40.593Z,2270
2017-09-17T12:36:50.741Z,2505
2017-09-17T12:38:01.222Z,2180
2017-09-17T12:39:11.714Z,2395
2017-09-17T12:40:22.457Z,2800
2017-09-17T12:41:32.962Z,2800
2017-09-17T12:42:43.481Z,1755
2017-09-17T12:43:54.023Z,975
2017-09-17T12:45:04.530Z,990
2017-09-17T12:46:15.271Z,1035
2017-09-17T12:47:25.782Z,2265
2017-09-17T12:48:36.333Z,835
2017-09-17T12:49:46.790Z,770
2017-09-17T12:50:57.339Z,690
2017-09-17T12:52:08.112Z,610
2017-09-17T12:53:18.637Z,590
2017-09-17T12:54:29.110Z,565
2017-09-17T12:55:39.669Z,545
2017-09-17T12:56:50.151Z,515
2017-09-17T12:58:00.888Z,505
2017-09-17T12:59:11.415Z,505
2017-09-17T13:00:22.028Z,490
2017-09-17T13:01:32.728Z,490
2017-09-17T13:02:43.211Z,475
2017-09-17T13:03:54.096Z,490
2017-09-17T13:05:04.561Z,530
2017-09-17T13:06:14.707Z,610
2017-09-17T13:07:25.206Z,770
2017-09-17T13:08:35.673Z,765
2017-09-17T13:09:46.472Z,695
2017-09-17T13:10:56.716Z,660
2017-09-17T13:12:07.223Z,710
2017-09-17T13:13:17.875Z,645
2017-09-17T13:14:28.034Z,615
2017-09-17T13:15:38.870Z,590
2017-09-17T13:16:49.647Z,595
2017-09-17T13:18:00.179Z,600
2017-09-17T13:19:10.701Z,585
2017-09-17T13:20:21.279Z,570
2017-09-17T13:21:32.042Z,540
2017-09-17T13:22:42.684Z,525
2017-09-17T13:23:53.198Z,520
2017-09-17T13:25:03.732Z,505
2017-09-17T13:26:14.003Z,490
2017-09-17T13:27:24.779Z,505
2017-09-17T13:28:35.277Z,500
2017-09-17T13:29:45.843Z,490
2017-09-17T13:30:56.108Z,485
2017-09-17T13:32:06.659Z,475
2017-09-17T13:33:17.445Z,470
2017-09-17T13:34:28.090Z,460
2017-09-17T13:35:38.391Z,430
2017-09-17T13:36:48.932Z,400
2017-09-17T13:37:59.461Z,385
2017-09-17T13:39:10.260Z,380
2017-09-17T13:40:20.807Z,370
2017-09-17T13:41:31.343Z,370
2017-09-17T13:42:41.868Z,375
2017-09-17T13:43:52.488Z,380
2017-09-17T13:45:03.258Z,380
2017-09-17T13:46:13.899Z,375
2017-09-17T13:47:24.487Z,370
2017-09-17T13:48:35.053Z,365
2017-09-17T13:49:45.663Z,365
2017-09-17T13:50:56.131Z,380
2017-09-17T13:52:06.691Z,400
2017-09-17T13:53:17.308Z,435
2017-09-17T13:54:27.953Z,535
2017-09-17T13:55:38.573Z,540
2017-09-17T13:56:49.042Z,540
2017-09-17T13:57:59.537Z,540
2017-09-17T13:59:10.613Z,530
2017-09-17T14:00:21.194Z,520
2017-09-17T14:01:31.975Z,530
2017-09-17T14:02:42.823Z,575
2017-09-17T14:03:53.341Z,545
2017-09-17T14:05:03.820Z,525
2017-09-17T14:06:14.605Z,525
2017-09-17T14:07:25.292Z,530
2017-09-17T14:08:35.832Z,550
2017-09-17T14:09:46.334Z,535
2017-09-17T14:10:57.043Z,535
2017-09-17T14:12:07.288Z,525
2017-09-17T14:13:17.849Z,530
2017-09-17T14:14:28.577Z,550
2017-09-17T14:15:39.126Z,555
2017-09-17T14:16:49.342Z,525
2017-09-17T14:17:59.841Z,495
2017-09-17T14:19:10.401Z,475
2017-09-17T14:20:21.281Z,450
2017-09-17T14:21:31.797Z,420
2017-09-17T14:22:42.287Z,400
2017-09-17T14:23:52.485Z,365
2017-09-17T14:25:02.977Z,345
2017-09-17T14:26:13.742Z,330
2017-09-17T14:27:24.308Z,305
2017-09-17T14:28:34.480Z,285
2017-09-17T14:29:44.972Z,265
2017-09-17T14:30:55.131Z,255
2017-09-17T14:32:05.391Z,245
2017-09-17T14:33:15.913Z,240
2017-09-17T14:34:26.378Z,240
2017-09-17T14:35:36.865Z,245
2017-09-17T14:36:47.333Z,250
2017-09-17T14:37:58.069Z,250
2017-09-17T14:39:08.257Z,255
2017-09-17T14:40:18.295Z,255
2017-09-17T14:41:28.772Z,265
2017-09-17T14:42:39.226Z,280
2017-09-17T14:43:49.973Z,300
2017-09-17T14:45:00.687Z,300
2017-09-17T14:46:11.300Z,300
2017-09-17T14:47:21.872Z,300
2017-09-17T14:48:32.464Z,295
2017-09-17T14:49:43.333Z,295
2017-09-17T14:50:53.964Z,290
2017-09-17T14:52:04.468Z,290
2017-09-17T14:53:15.064Z,285
2017-09-17T14:54:25.789Z,295
2017-09-17T14:55:36.288Z,305
2017-09-17T14:56:46.845Z,310
2017-09-17T14:57:57.632Z,325
2017-09-17T14:59:08.390Z,335
2017-09-17T15:00:18.906Z,360
2017-09-17T15:01:29.525Z,385
2017-09-17T15:02:40.105Z,425
2017-09-17T15:03:50.944Z,485
2017-09-17T15:05:01.469Z,545
2017-09-17T15:06:11.771Z,415
2017-09-17T15:07:22.364Z,390
2017-09-17T15:08:33.294Z,375
2017-09-17T15:09:44.075Z,370
2017-09-17T15:10:53.836Z,365
2017-09-17T15:12:04.436Z,355
2017-09-17T15:13:14.884Z,345
2017-09-17T15:14:25.510Z,365
2017-09-17T15:15:35.964Z,360
2017-09-17T15:16:46.519Z,360
2017-09-17T15:17:57.081Z,350
2017-09-17T15:19:07.813Z,350
2017-09-17T15:20:19.312Z,350
2017-09-17T15:21:30.104Z,360
2017-09-17T15:22:41.577Z,350
2017-09-17T15:23:52.245Z,345
2017-09-17T15:25:02.908Z,330
2017-09-17T15:26:13.470Z,320
2017-09-17T15:27:24.308Z,310
2017-09-17T15:28:34.804Z,305
2017-09-17T15:29:45.310Z,295
2017-09-17T15:30:55.484Z,280
2017-09-17T15:32:05.985Z,275
2017-09-17T15:33:16.762Z,265
2017-09-17T15:34:27.243Z,265
2017-09-17T15:35:37.934Z,265
2017-09-17T15:36:48.305Z,270
2017-09-17T15:37:58.833Z,270
2017-09-17T15:39:09.637Z,265
2017-09-17T15:40:20.146Z,265
2017-09-17T15:41:30.307Z,255
2017-09-17T15:42:40.817Z,235
2017-09-17T15:43:51.336Z,220
2017-09-17T15:45:02.110Z,220
2017-09-17T15:46:12.707Z,220
2017-09-17T15:47:23.251Z,215
2017-09-17T15:48:33.405Z,215
2017-09-17T15:49:43.659Z,200
2017-09-17T15:50:54.541Z,190
2017-09-17T15:52:04.455Z,175
2017-09-17T15:53:15.041Z,155
2017-09-17T15:54:25.777Z,135
2017-09-17T15:55:36.274Z,115
2017-09-17T15:56:47.147Z,110
2017-09-17T15:57:57.632Z,100
2017-09-17T15:59:08.129Z,95
2017-09-17T16:00:18.248Z,90
2017-09-17T16:01:28.707Z,85
2017-09-17T16:02:39.466Z,75
2017-09-17T16:03:50.156Z,70
2017-09-17T16:05:00.243Z,65
2017-09-17T16:06:10.733Z,60
2017-09-17T16:07:21.226Z,60
2017-09-17T16:08:32.168Z,60
2017-09-17T16:09:42.682Z,60
2017-09-17T16:10:53.246Z,60
2017-09-17T16:12:03.722Z,65
2017-09-17T16:13:14.265Z,65
2017-09-17T16:14:25.015Z,65
2017-09-17T16:15:35.596Z,65
2017-09-17T16:16:45.774Z,65
2017-09-17T16:17:56.537Z,65
2017-09-17T16:19:07.090Z,65
2017-09-17T16:20:17.928Z,65
2017-09-17T16:21:28.453Z,60
2017-09-17T16:22:38.980Z,60
2017-09-17T16:23:49.471Z,55
2017-09-17T16:24:59.939Z,45
2017-09-17T16:26:10.719Z,35
2017-09-17T16:27:21.349Z,30